Terminal Aerodrome Forecast
Issued by NWS Spokane, WA

Home | Current Version | Previous Version | Text Only | Print | Product List | Glossary On
Versions: 1 2 3 4 5 6 7 8 9 10 11 12 13 14 15
000
FTUS46 KOTX 232348 CCA
TAFEAT
TAF COR
KEAT 232348Z 2400/2424 26005KT P6SM VCSH SCT050 OVC070
     FM240400 15004KT P6SM -SHRA OVC040
     FM240800 VRB03KT P6SM -RA OVC020
     FM241300 30007KT P6SM SCT015 OVC120
     FM241800 30015G25KT P6SM VCSH SCT050 BKN090=

USA.gov is the U.S. government's official web portal to all federal, state and local government web resources and services.